createdAt,value
2016-10-30T00:00:22.250Z,0
2016-10-30T00:01:22.463Z,0
2016-10-30T00:02:23.559Z,0
2016-10-30T00:03:22.488Z,0
2016-10-30T00:04:22.472Z,0
2016-10-30T00:05:23.254Z,0
2016-10-30T00:06:21.409Z,0
2016-10-30T00:07:22.082Z,0
2016-10-30T00:08:23.790Z,0
2016-10-30T00:09:24.703Z,0
2016-10-30T00:10:22.094Z,0
2016-10-30T00:11:21.905Z,0
2016-10-30T00:12:23.707Z,0
2016-10-30T00:13:20.964Z,0
2016-10-30T00:14:23.619Z,0
2016-10-30T00:15:21.765Z,0
2016-10-30T00:16:24.385Z,0
2016-10-30T00:17:22.123Z,0
2016-10-30T00:18:27.244Z,0
2016-10-30T00:19:22.345Z,0
2016-10-30T00:20:23.943Z,0
2016-10-30T00:21:22.027Z,0
2016-10-30T00:22:23.010Z,0
2016-10-30T00:23:22.366Z,0
2016-10-30T00:24:22.002Z,0
2016-10-30T00:25:22.705Z,0
2016-10-30T00:26:22.181Z,0
2016-10-30T00:27:23.927Z,0
2016-10-30T00:28:22.828Z,0
2016-10-30T00:29:22.614Z,0
2016-10-30T00:30:22.082Z,0
2016-10-30T00:31:24.996Z,0
2016-10-30T00:32:22.736Z,0
2016-10-30T00:33:22.211Z,0
2016-10-30T00:34:23.237Z,0
2016-10-30T00:35:20.857Z,0
2016-10-30T00:36:22.385Z,0
2016-10-30T00:37:23.200Z,0
2016-10-30T00:38:22.869Z,0
2016-10-30T00:39:22.029Z,0
2016-10-30T00:40:27.502Z,0
2016-10-30T00:41:22.677Z,0
2016-10-30T00:42:24.213Z,0
2016-10-30T00:43:23.754Z,0
2016-10-30T00:44:22.850Z,0
2016-10-30T00:45:22.159Z,0
2016-10-30T00:46:22.131Z,0
2016-10-30T00:47:22.922Z,0
2016-10-30T00:48:22.710Z,0
2016-10-30T00:49:24.113Z,0
2016-10-30T00:50:21.836Z,0
2016-10-30T00:51:24.931Z,0
2016-10-30T00:52:22.422Z,0
2016-10-30T00:53:25.919Z,0
2016-10-30T00:54:22.636Z,0
2016-10-30T00:55:22.157Z,0
2016-10-30T00:56:23.340Z,0
2016-10-30T00:57:22.648Z,0
2016-10-30T00:58:22.547Z,0
2016-10-30T01:00:49.380Z,0
2016-10-30T01:01:48.740Z,0
2016-10-30T01:02:48.214Z,0
2016-10-30T01:03:49.620Z,0
2016-10-30T01:04:48.979Z,0
2016-10-30T01:05:48.814Z,0
2016-10-30T01:06:50.219Z,0
2016-10-30T01:07:48.869Z,0
2016-10-30T01:08:50.349Z,0
2016-10-30T01:09:48.131Z,0
2016-10-30T01:10:49.106Z,0
2016-10-30T01:11:47.260Z,0
2016-10-30T01:12:47.938Z,0
2016-10-30T01:13:49.830Z,0
2016-10-30T01:14:49.017Z,0
2016-10-30T01:15:48.173Z,0
2016-10-30T01:16:47.978Z,0
2016-10-30T01:17:48.693Z,0
2016-10-30T01:18:50.044Z,0
2016-10-30T01:19:49.990Z,0
2016-10-30T01:20:49.388Z,0
2016-10-30T01:21:48.073Z,0
2016-10-30T01:22:49.598Z,0
2016-10-30T01:23:47.747Z,0
2016-10-30T01:24:48.794Z,0
2016-10-30T01:25:48.108Z,0
2016-10-30T01:26:49.615Z,0
2016-10-30T01:27:48.865Z,0
2016-10-30T01:29:04.598Z,0
2016-10-30T01:29:49.320Z,0
2016-10-30T01:30:50.562Z,0
2016-10-30T01:31:47.920Z,0
2016-10-30T01:32:49.818Z,0
2016-10-30T01:33:48.684Z,0
2016-10-30T01:34:48.468Z,0
2016-10-30T01:35:49.733Z,0
2016-10-30T01:36:48.916Z,0
2016-10-30T01:37:48.275Z,0
2016-10-30T01:38:48.383Z,0
2016-10-30T01:39:51.049Z,0
2016-10-30T01:40:48.450Z,0
2016-10-30T01:41:49.869Z,0
2016-10-30T01:42:49.194Z,0
2016-10-30T01:43:48.632Z,0
2016-10-30T01:44:49.814Z,0
2016-10-30T01:45:50.025Z,0
2016-10-30T01:46:48.646Z,0
2016-10-30T01:47:48.586Z,0
2016-10-30T01:48:49.365Z,0
2016-10-30T01:49:49.096Z,0
2016-10-30T01:50:48.043Z,0
2016-10-30T01:51:50.272Z,0
2016-10-30T01:52:50.849Z,0
2016-10-30T01:53:48.568Z,0
2016-10-30T01:54:49.854Z,0
2016-10-30T01:55:47.406Z,0
2016-10-30T01:56:49.114Z,0
2016-10-30T01:57:49.665Z,0
2016-10-30T01:58:49.022Z,0
2016-10-30T01:59:49.127Z,0
2016-10-30T02:00:49.791Z,0
2016-10-30T02:01:51.623Z,0
2016-10-30T02:02:48.653Z,0
2016-10-30T02:03:50.427Z,0
2016-10-30T02:04:50.122Z,0
2016-10-30T02:05:49.053Z,0
2016-10-30T02:06:48.533Z,0
2016-10-30T02:07:49.571Z,0
2016-10-30T02:08:47.528Z,0
2016-10-30T02:09:48.221Z,0
2016-10-30T02:10:49.624Z,0
2016-10-30T02:11:49.721Z,0
2016-10-30T02:12:48.799Z,0
2016-10-30T02:13:50.065Z,0
2016-10-30T02:14:53.086Z,0
2016-10-30T02:15:48.775Z,0
2016-10-30T02:16:49.759Z,0
2016-10-30T02:17:49.279Z,0
2016-10-30T02:18:47.264Z,0
2016-10-30T02:19:48.543Z,0
2016-10-30T02:20:49.237Z,0
2016-10-30T02:21:47.325Z,0
2016-10-30T02:22:48.807Z,0
2016-10-30T02:23:49.467Z,0
2016-10-30T02:24:49.414Z,0
2016-10-30T02:25:50.434Z,0
2016-10-30T02:26:49.849Z,0
2016-10-30T02:27:49.355Z,0
2016-10-30T02:28:49.061Z,0
2016-10-30T02:29:48.133Z,0
2016-10-30T02:30:49.819Z,0
2016-10-30T02:31:49.073Z,0
2016-10-30T02:32:49.730Z,0
2016-10-30T02:33:49.632Z,0
2016-10-30T02:34:50.545Z,0
2016-10-30T02:35:48.390Z,0
2016-10-30T02:36:51.857Z,0
2016-10-30T02:37:48.687Z,0
2016-10-30T02:38:48.467Z,0
2016-10-30T02:39:49.763Z,0
2016-10-30T02:40:49.549Z,0
2016-10-30T02:41:48.591Z,0
2016-10-30T02:42:50.026Z,0
2016-10-30T02:43:47.567Z,0
2016-10-30T02:44:48.447Z,0
2016-10-30T02:45:51.900Z,0
2016-10-30T02:46:49.794Z,0
2016-10-30T02:47:52.483Z,0
2016-10-30T02:48:49.702Z,0
2016-10-30T02:49:51.077Z,0
2016-10-30T02:50:48.887Z,0
2016-10-30T02:51:49.826Z,0
2016-10-30T02:52:49.184Z,0
2016-10-30T02:53:49.090Z,0
2016-10-30T02:54:50.381Z,0
2016-10-30T02:55:49.847Z,0
2016-10-30T02:56:50.828Z,0
2016-10-30T02:57:48.563Z,0
2016-10-30T02:58:51.477Z,0
2016-10-30T02:59:48.952Z,0
2016-10-30T03:00:48.691Z,0
2016-10-30T03:01:49.667Z,0
2016-10-30T03:02:49.646Z,0
2016-10-30T03:03:48.811Z,0
2016-10-30T03:04:49.672Z,0
2016-10-30T03:05:47.825Z,0
2016-10-30T03:06:48.934Z,0
2016-10-30T03:07:50.648Z,0
2016-10-30T03:08:49.070Z,0
2016-10-30T03:09:49.088Z,0
2016-10-30T03:10:48.269Z,0
2016-10-30T03:11:49.407Z,0
2016-10-30T03:12:48.637Z,0
2016-10-30T03:13:50.042Z,0
2016-10-30T03:14:49.401Z,0
2016-10-30T03:15:48.810Z,0
2016-10-30T03:16:50.050Z,0
2016-10-30T03:17:49.953Z,0
2016-10-30T03:18:49.356Z,0
2016-10-30T03:19:48.938Z,0
2016-10-30T03:20:51.692Z,0
2016-10-30T03:21:49.783Z,0
2016-10-30T03:22:48.790Z,0
2016-10-30T03:23:51.698Z,0
2016-10-30T03:24:47.868Z,0
2016-10-30T03:25:49.074Z,0
2016-10-30T03:26:48.417Z,0
2016-10-30T03:27:49.135Z,0
2016-10-30T03:28:48.871Z,0
2016-10-30T03:29:50.091Z,0
2016-10-30T03:30:49.681Z,0
2016-10-30T03:31:49.286Z,0
2016-10-30T03:32:50.409Z,0
2016-10-30T03:33:51.526Z,0
2016-10-30T03:34:49.282Z,0
2016-10-30T03:35:50.567Z,0
2016-10-30T03:36:49.668Z,0
2016-10-30T03:37:49.412Z,0
2016-10-30T03:38:48.457Z,0
2016-10-30T03:39:49.625Z,0
2016-10-30T03:40:51.147Z,0
2016-10-30T03:41:49.048Z,0
2016-10-30T03:42:52.342Z,0
2016-10-30T03:43:48.010Z,0
2016-10-30T03:44:49.066Z,0
2016-10-30T03:45:50.412Z,0
2016-10-30T03:46:48.134Z,0
2016-10-30T03:47:48.821Z,0
2016-10-30T03:48:49.994Z,0
2016-10-30T03:49:48.257Z,0
2016-10-30T03:50:49.056Z,0
2016-10-30T03:51:50.346Z,0
2016-10-30T03:52:48.381Z,0
2016-10-30T03:53:49.423Z,0
2016-10-30T03:54:50.353Z,0
2016-10-30T03:55:50.539Z,0
2016-10-30T03:56:47.868Z,0
2016-10-30T03:57:50.481Z,0
2016-10-30T03:59:04.203Z,0
2016-10-30T03:59:49.314Z,0
2016-10-30T04:00:50.959Z,0
2016-10-30T04:01:50.552Z,0
2016-10-30T04:02:49.436Z,0
2016-10-30T04:03:49.532Z,0
2016-10-30T04:04:52.127Z,0
2016-10-30T04:05:49.921Z,0
2016-10-30T04:06:48.798Z,0
2016-10-30T04:07:50.202Z,0
2016-10-30T04:08:49.446Z,0
2016-10-30T04:09:48.919Z,0
2016-10-30T04:10:50.325Z,0
2016-10-30T04:11:49.803Z,0
2016-10-30T04:12:49.209Z,0
2016-10-30T04:13:48.750Z,0
2016-10-30T04:14:50.350Z,0
2016-10-30T04:15:51.212Z,0
2016-10-30T04:16:49.261Z,0
2016-10-30T04:17:50.018Z,0
2016-10-30T04:18:49.402Z,0
2016-10-30T04:19:50.693Z,0
2016-10-30T04:20:52.019Z,0
2016-10-30T04:21:49.838Z,0
2016-10-30T04:22:49.305Z,0
2016-10-30T04:23:50.174Z,0
2016-10-30T04:24:51.677Z,0
2016-10-30T04:25:48.890Z,0
2016-10-30T04:26:50.625Z,0
2016-10-30T04:27:49.655Z,0
2016-10-30T04:29:18.260Z,0
2016-10-30T04:29:49.089Z,0
2016-10-30T04:30:50.007Z,0
2016-10-30T04:31:49.137Z,0
2016-10-30T04:32:49.037Z,0
2016-10-30T04:33:50.056Z,0
2016-10-30T04:34:49.686Z,0
2016-10-30T04:35:52.695Z,0
2016-10-30T04:36:50.027Z,0
2016-10-30T04:37:51.411Z,0
2016-10-30T04:38:49.341Z,0
2016-10-30T04:39:50.146Z,0
2016-10-30T04:40:48.294Z,0
2016-10-30T04:41:49.355Z,0
2016-10-30T04:42:52.234Z,0
2016-10-30T04:43:50.055Z,0
2016-10-30T04:44:48.986Z,0
2016-10-30T04:45:48.804Z,0
2016-10-30T04:46:49.690Z,0
2016-10-30T04:47:49.420Z,0
2016-10-30T04:48:51.013Z,0
2016-10-30T04:49:50.101Z,0
2016-10-30T04:50:49.404Z,0
2016-10-30T04:51:50.636Z,0
2016-10-30T04:52:50.421Z,0
2016-10-30T04:53:49.895Z,0
2016-10-30T04:54:49.254Z,0
2016-10-30T04:55:50.546Z,0
2016-10-30T04:56:48.229Z,0
2016-10-30T04:57:49.378Z,0
2016-10-30T04:59:07.045Z,0
2016-10-30T04:59:50.306Z,0
2016-10-30T05:00:49.781Z,0
2016-10-30T05:01:50.362Z,0
2016-10-30T05:02:49.721Z,0
2016-10-30T05:03:49.558Z,0
2016-10-30T05:04:49.277Z,0
2016-10-30T05:05:50.273Z,0
2016-10-30T05:06:49.203Z,0
2016-10-30T05:07:48.880Z,0
2016-10-30T05:08:50.759Z,0
2016-10-30T05:09:49.324Z,0
2016-10-30T05:10:51.160Z,0
2016-10-30T05:11:50.939Z,0
2016-10-30T05:12:50.079Z,0
2016-10-30T05:13:49.350Z,0
2016-10-30T05:14:50.125Z,0
2016-10-30T05:15:49.668Z,0
2016-10-30T05:16:49.201Z,0
2016-10-30T05:17:50.221Z,0
2016-10-30T05:18:48.428Z,0
2016-10-30T05:19:49.591Z,0
2016-10-30T05:20:51.311Z,0
2016-10-30T05:21:51.864Z,0
2016-10-30T05:22:49.290Z,0
2016-10-30T05:23:51.011Z,0
2016-10-30T05:24:50.479Z,0
2016-10-30T05:25:50.155Z,0
2016-10-30T05:26:49.311Z,0
2016-10-30T05:27:50.490Z,0
2016-10-30T05:28:50.252Z,0
2016-10-30T05:29:49.599Z,0
2016-10-30T05:30:50.890Z,0
2016-10-30T05:31:49.543Z,0
2016-10-30T05:32:50.891Z,0
2016-10-30T05:33:50.289Z,0
2016-10-30T05:34:50.149Z,0
2016-10-30T05:35:49.883Z,0
2016-10-30T05:36:50.430Z,0
2016-10-30T05:37:49.901Z,0
2016-10-30T05:38:49.655Z,0
2016-10-30T05:39:50.670Z,0
2016-10-30T05:40:50.121Z,0
2016-10-30T05:41:51.400Z,0
2016-10-30T05:42:51.105Z,0
2016-10-30T05:43:50.572Z,0
2016-10-30T05:44:49.665Z,0
2016-10-30T05:45:50.800Z,0
2016-10-30T05:46:50.156Z,0
2016-10-30T05:47:50.003Z,0
2016-10-30T05:48:49.587Z,0
2016-10-30T05:49:50.513Z,0
2016-10-30T05:50:48.376Z,0
2016-10-30T05:51:49.159Z,0
2016-10-30T05:52:52.720Z,0
2016-10-30T05:53:50.189Z,0
2016-10-30T05:54:51.109Z,0
2016-10-30T05:55:50.951Z,0
2016-10-30T05:56:49.883Z,0
2016-10-30T05:57:49.830Z,0
2016-10-30T05:59:07.481Z,0
2016-10-30T05:59:50.435Z,0
2016-10-30T06:00:50.159Z,0
2016-10-30T06:01:49.131Z,0
2016-10-30T06:02:50.557Z,0
2016-10-30T06:03:51.583Z,0
2016-10-30T06:04:51.202Z,0
2016-10-30T06:05:50.427Z,0
2016-10-30T06:06:50.098Z,0
2016-10-30T06:07:53.016Z,0
2016-10-30T06:08:49.165Z,0
2016-10-30T06:09:50.521Z,0
2016-10-30T06:10:49.517Z,0
2016-10-30T06:11:50.497Z,0
2016-10-30T06:12:50.594Z,0
2016-10-30T06:13:49.213Z,0
2016-10-30T06:14:51.155Z,0
2016-10-30T06:15:50.092Z,0
2016-10-30T06:16:53.547Z,0
2016-10-30T06:17:50.856Z,0
2016-10-30T06:18:50.214Z,0
2016-10-30T06:19:50.237Z,0
2016-10-30T06:20:50.978Z,0
2016-10-30T06:21:50.251Z,0
2016-10-30T06:22:50.135Z,0
2016-10-30T06:23:51.037Z,0
2016-10-30T06:24:50.348Z,0
2016-10-30T06:25:51.751Z,0
2016-10-30T06:26:51.109Z,0
2016-10-30T06:27:52.514Z,5
2016-10-30T06:28:50.253Z,5
2016-10-30T06:29:51.984Z,5
2016-10-30T06:30:50.502Z,5
2016-10-30T06:31:49.949Z,5
2016-10-30T06:32:49.851Z,5
2016-10-30T06:33:51.256Z,5
2016-10-30T06:34:50.186Z,5
2016-10-30T06:35:49.859Z,5
2016-10-30T06:36:51.119Z,5
2016-10-30T06:37:51.047Z,5
2016-10-30T06:38:51.604Z,5
2016-10-30T06:39:51.007Z,5
2016-10-30T06:40:49.106Z,10
2016-10-30T06:41:49.794Z,10
2016-10-30T06:42:51.509Z,10
2016-10-30T06:43:49.234Z,10
2016-10-30T06:44:49.914Z,10
2016-10-30T06:45:51.549Z,10
2016-10-30T06:46:51.105Z,10
2016-10-30T06:47:51.968Z,10
2016-10-30T06:48:49.960Z,10
2016-10-30T06:49:52.783Z,10
2016-10-30T06:50:48.780Z,15
2016-10-30T06:51:50.014Z,15
2016-10-30T06:52:51.659Z,15
2016-10-30T06:53:50.908Z,15
2016-10-30T06:54:50.064Z,15
2016-10-30T06:55:51.247Z,15
2016-10-30T06:56:49.080Z,15
2016-10-30T06:57:50.075Z,15
2016-10-30T06:58:53.524Z,15
2016-10-30T06:59:50.954Z,15
2016-10-30T07:00:51.818Z,15
2016-10-30T07:01:49.497Z,15
2016-10-30T07:02:51.013Z,15
2016-10-30T07:03:50.322Z,15
2016-10-30T07:04:51.297Z,15
2016-10-30T07:05:50.918Z,20
2016-10-30T07:06:50.872Z,20
2016-10-30T07:07:51.462Z,20
2016-10-30T07:08:50.895Z,20
2016-10-30T07:09:52.302Z,20
2016-10-30T07:10:50.036Z,20
2016-10-30T07:11:51.447Z,20
2016-10-30T07:12:50.260Z,20
2016-10-30T07:13:49.620Z,20
2016-10-30T07:14:51.024Z,20
2016-10-30T07:15:50.325Z,20
2016-10-30T07:16:50.282Z,20
2016-10-30T07:17:51.148Z,25
2016-10-30T07:18:50.391Z,25
2016-10-30T07:19:50.292Z,25
2016-10-30T07:20:51.435Z,25
2016-10-30T07:21:50.752Z,25
2016-10-30T07:22:52.825Z,25
2016-10-30T07:23:51.394Z,25
2016-10-30T07:24:50.752Z,25
2016-10-30T07:25:50.112Z,25
2016-10-30T07:26:49.892Z,25
2016-10-30T07:27:51.301Z,25
2016-10-30T07:28:50.234Z,25
2016-10-30T07:29:50.019Z,30
2016-10-30T07:30:50.882Z,30
2016-10-30T07:31:50.301Z,30
2016-10-30T07:32:51.761Z,30
2016-10-30T07:33:53.214Z,30
2016-10-30T07:34:51.333Z,30
2016-10-30T07:35:50.381Z,30
2016-10-30T07:36:51.242Z,30
2016-10-30T07:37:51.079Z,30
2016-10-30T07:38:50.388Z,30
2016-10-30T07:39:51.365Z,30
2016-10-30T07:40:50.609Z,30
2016-10-30T07:41:50.081Z,30
2016-10-30T07:42:52.309Z,30
2016-10-30T07:43:51.545Z,35
2016-10-30T07:44:52.194Z,35
2016-10-30T07:45:51.610Z,35
2016-10-30T07:46:51.396Z,35
2016-10-30T07:47:50.212Z,35
2016-10-30T07:48:51.733Z,35
2016-10-30T07:49:51.091Z,35
2016-10-30T07:50:50.734Z,35
2016-10-30T07:51:49.727Z,35
2016-10-30T07:52:51.099Z,35
2016-10-30T07:53:50.649Z,35
2016-10-30T07:54:51.811Z,40
2016-10-30T07:55:54.800Z,40
2016-10-30T07:56:50.349Z,40
2016-10-30T07:57:51.192Z,40
2016-10-30T07:58:50.863Z,40
2016-10-30T07:59:51.957Z,40
2016-10-30T08:00:51.741Z,45
2016-10-30T08:01:50.987Z,45
2016-10-30T08:02:50.454Z,45
2016-10-30T08:03:51.863Z,45
2016-10-30T08:04:50.629Z,45
2016-10-30T08:05:50.153Z,45
2016-10-30T08:06:51.926Z,45
2016-10-30T08:07:50.727Z,50
2016-10-30T08:08:50.162Z,90
2016-10-30T08:09:50.170Z,195
2016-10-30T08:10:50.924Z,285
2016-10-30T08:11:50.403Z,300
2016-10-30T08:12:51.691Z,310
2016-10-30T08:13:51.163Z,300
2016-10-30T08:14:51.260Z,295
2016-10-30T08:15:52.040Z,310
2016-10-30T08:16:51.222Z,320
2016-10-30T08:17:54.938Z,315
2016-10-30T08:18:50.742Z,305
2016-10-30T08:19:51.233Z,285
2016-10-30T08:20:51.492Z,280
2016-10-30T08:21:50.012Z,305
2016-10-30T08:22:51.418Z,305
2016-10-30T08:23:49.253Z,305
2016-10-30T08:24:50.561Z,330
2016-10-30T08:25:50.334Z,340
2016-10-30T08:26:53.331Z,350
2016-10-30T08:27:50.294Z,345
2016-10-30T08:28:52.185Z,335
2016-10-30T08:29:51.137Z,345
2016-10-30T08:30:50.349Z,350
2016-10-30T08:31:51.786Z,345
2016-10-30T08:32:51.660Z,350
2016-10-30T08:33:49.239Z,375
2016-10-30T08:34:51.956Z,400
2016-10-30T08:35:51.694Z,390
2016-10-30T08:36:51.055Z,360
2016-10-30T08:37:52.651Z,355
2016-10-30T08:38:51.938Z,370
2016-10-30T08:39:54.872Z,375
2016-10-30T08:40:50.927Z,355
2016-10-30T08:41:51.511Z,290
2016-10-30T08:42:50.807Z,195
2016-10-30T08:43:50.982Z,135
2016-10-30T08:44:52.058Z,125
2016-10-30T08:45:51.537Z,120
2016-10-30T08:46:52.296Z,120
2016-10-30T08:47:51.806Z,120
2016-10-30T08:48:53.570Z,120
2016-10-30T08:49:50.901Z,120
2016-10-30T08:50:53.928Z,115
2016-10-30T08:51:51.353Z,115
2016-10-30T08:52:50.710Z,115
2016-10-30T08:53:51.885Z,110
2016-10-30T08:54:51.309Z,105
2016-10-30T08:55:50.833Z,105
2016-10-30T08:56:52.127Z,105
2016-10-30T08:57:51.484Z,105
2016-10-30T08:58:51.383Z,105
2016-10-30T08:59:50.798Z,105
2016-10-30T09:00:52.461Z,105
2016-10-30T09:01:51.719Z,100
2016-10-30T09:02:50.861Z,100
2016-10-30T09:03:52.155Z,100
2016-10-30T09:04:51.203Z,100
2016-10-30T09:05:50.560Z,100
2016-10-30T09:06:51.900Z,100
2016-10-30T09:07:51.325Z,100
2016-10-30T09:08:50.995Z,100
2016-10-30T09:09:51.974Z,95
2016-10-30T09:10:53.693Z,95
2016-10-30T09:11:51.119Z,95
2016-10-30T09:12:52.532Z,95
2016-10-30T09:13:51.891Z,100
2016-10-30T09:14:49.561Z,95
2016-10-30T09:15:52.537Z,95
2016-10-30T09:16:51.463Z,95
2016-10-30T09:17:51.461Z,90
2016-10-30T09:18:52.341Z,90
2016-10-30T09:19:51.699Z,90
2016-10-30T09:20:51.059Z,90
2016-10-30T09:21:52.465Z,90
2016-10-30T09:22:52.568Z,90
2016-10-30T09:23:55.344Z,85
2016-10-30T09:24:50.965Z,85
2016-10-30T09:25:50.668Z,85
2016-10-30T09:26:51.420Z,85
2016-10-30T09:27:50.694Z,80
2016-10-30T09:28:50.690Z,80
2016-10-30T09:29:52.021Z,80
2016-10-30T09:30:51.216Z,80
2016-10-30T09:31:50.683Z,80
2016-10-30T09:32:53.667Z,75
2016-10-30T09:33:49.702Z,75
2016-10-30T09:34:52.518Z,75
2016-10-30T09:35:51.839Z,75
2016-10-30T09:36:51.154Z,75
2016-10-30T09:37:50.739Z,75
2016-10-30T09:38:52.220Z,70
2016-10-30T09:39:49.940Z,70
2016-10-30T09:40:50.941Z,65
2016-10-30T09:41:52.395Z,65
2016-10-30T09:42:51.400Z,70
2016-10-30T09:43:51.145Z,70
2016-10-30T09:44:50.419Z,60
2016-10-30T09:45:55.766Z,70
2016-10-30T09:46:51.117Z,65
2016-10-30T09:47:50.778Z,70
2016-10-30T09:48:51.642Z,70
2016-10-30T09:49:51.310Z,70
2016-10-30T09:50:50.904Z,70
2016-10-30T09:51:51.772Z,70
2016-10-30T09:52:49.795Z,70
2016-10-30T09:53:50.906Z,70
2016-10-30T09:54:51.843Z,70
2016-10-30T09:55:49.550Z,70
2016-10-30T09:56:52.994Z,70
2016-10-30T09:57:51.939Z,70
2016-10-30T09:58:51.674Z,65
2016-10-30T09:59:51.195Z,65
2016-10-30T10:00:52.806Z,60
2016-10-30T10:01:51.486Z,70
2016-10-30T10:02:51.475Z,70
2016-10-30T10:03:52.285Z,65
2016-10-30T10:04:51.544Z,70
2016-10-30T10:05:54.945Z,70
2016-10-30T10:06:52.684Z,70
2016-10-30T10:07:51.076Z,65
2016-10-30T10:08:52.203Z,65
2016-10-30T10:09:52.079Z,65
2016-10-30T10:10:51.043Z,70
2016-10-30T10:11:51.001Z,60
2016-10-30T10:12:52.278Z,50
2016-10-30T10:13:51.532Z,40
2016-10-30T10:14:51.124Z,40
2016-10-30T10:15:52.238Z,45
2016-10-30T10:16:53.097Z,40
2016-10-30T10:17:52.893Z,40
2016-10-30T10:18:51.867Z,50
2016-10-30T10:19:51.764Z,60
2016-10-30T10:20:51.503Z,60
2016-10-30T10:21:52.478Z,55
2016-10-30T10:22:51.575Z,50
2016-10-30T10:23:52.432Z,50
2016-10-30T10:24:52.175Z,55
2016-10-30T10:25:50.322Z,55
2016-10-30T10:26:51.318Z,55
2016-10-30T10:27:52.411Z,50
2016-10-30T10:29:36.687Z,55
2016-10-30T10:29:51.260Z,55
2016-10-30T10:30:52.364Z,55
2016-10-30T10:31:52.323Z,50
2016-10-30T10:32:51.993Z,50
2016-10-30T10:33:52.542Z,50
2016-10-30T10:34:51.901Z,50
2016-10-30T10:35:51.686Z,50
2016-10-30T10:36:52.664Z,50
2016-10-30T10:37:50.817Z,50
2016-10-30T10:38:55.476Z,55
2016-10-30T10:39:51.458Z,50
2016-10-30T10:40:54.361Z,50
2016-10-30T10:41:52.046Z,50
2016-10-30T10:42:51.683Z,50
2016-10-30T10:43:52.269Z,50
2016-10-30T10:44:52.053Z,45
2016-10-30T10:45:51.526Z,45
2016-10-30T10:46:52.504Z,45
2016-10-30T10:47:51.636Z,45
2016-10-30T10:48:51.960Z,45
2016-10-30T10:49:52.679Z,45
2016-10-30T10:50:51.874Z,45
2016-10-30T10:51:51.348Z,45
2016-10-30T10:52:51.445Z,45
2016-10-30T10:53:52.158Z,45
2016-10-30T10:54:51.355Z,50
2016-10-30T10:55:51.377Z,50
2016-10-30T10:56:52.168Z,55
2016-10-30T10:57:52.335Z,55
2016-10-30T10:58:51.069Z,55
2016-10-30T10:59:52.668Z,50
2016-10-30T11:00:52.261Z,50
2016-10-30T11:01:53.006Z,55
2016-10-30T11:02:56.507Z,60
2016-10-30T11:03:52.198Z,60
2016-10-30T11:04:51.678Z,55
2016-10-30T11:05:52.601Z,60
2016-10-30T11:06:52.677Z,65
2016-10-30T11:07:51.748Z,60
2016-10-30T11:08:52.881Z,60
2016-10-30T11:09:52.512Z,60
2016-10-30T11:10:51.441Z,60
2016-10-30T11:11:53.156Z,60
2016-10-30T11:12:54.022Z,60
2016-10-30T11:13:51.564Z,55
2016-10-30T11:14:51.547Z,55
2016-10-30T11:15:52.729Z,55
2016-10-30T11:16:51.483Z,55
2016-10-30T11:17:52.976Z,55
2016-10-30T11:18:52.335Z,55
2016-10-30T11:19:51.698Z,60
2016-10-30T11:20:51.641Z,60
2016-10-30T11:21:52.355Z,60
2016-10-30T11:22:52.633Z,60
2016-10-30T11:23:52.026Z,60
2016-10-30T11:24:52.697Z,60
2016-10-30T11:25:51.822Z,60
2016-10-30T11:26:51.726Z,60
2016-10-30T11:27:53.011Z,60
2016-10-30T11:28:51.946Z,55
2016-10-30T11:29:51.846Z,55
2016-10-30T11:30:51.446Z,55
2016-10-30T11:31:50.975Z,55
2016-10-30T11:32:49.976Z,55
2016-10-30T11:33:55.045Z,50
2016-10-30T11:34:52.419Z,55
2016-10-30T11:35:55.699Z,50
2016-10-30T11:36:51.612Z,45
2016-10-30T11:37:52.856Z,45
2016-10-30T11:38:52.213Z,45
2016-10-30T11:39:51.697Z,45
2016-10-30T11:40:53.093Z,50
2016-10-30T11:41:51.909Z,50
2016-10-30T11:42:52.005Z,50
2016-10-30T11:43:51.441Z,55
2016-10-30T11:44:56.559Z,55
2016-10-30T11:45:51.505Z,55
2016-10-30T11:46:52.880Z,55
2016-10-30T11:47:52.078Z,55
2016-10-30T11:48:51.740Z,55
2016-10-30T11:49:52.919Z,55
2016-10-30T11:50:52.158Z,55
2016-10-30T11:51:51.651Z,55
2016-10-30T11:52:51.476Z,50
2016-10-30T11:53:52.401Z,50
2016-10-30T11:54:50.549Z,50
2016-10-30T11:55:53.999Z,50
2016-10-30T11:56:51.305Z,50
2016-10-30T11:57:55.927Z,50
2016-10-30T11:58:53.284Z,45
2016-10-30T11:59:52.872Z,45
2016-10-30T12:00:50.792Z,45
2016-10-30T12:01:51.788Z,45
2016-10-30T12:02:53.577Z,45
2016-10-30T12:03:52.552Z,45
2016-10-30T12:04:51.911Z,40
2016-10-30T12:05:51.511Z,40
2016-10-30T12:06:56.723Z,40
2016-10-30T12:07:51.621Z,40
2016-10-30T12:08:53.078Z,40
2016-10-30T12:09:52.797Z,40
2016-10-30T12:10:52.153Z,35
2016-10-30T12:11:51.631Z,35
2016-10-30T12:12:51.297Z,40
2016-10-30T12:13:50.275Z,40
2016-10-30T12:14:53.530Z,40
2016-10-30T12:15:53.041Z,40
2016-10-30T12:16:51.859Z,45
2016-10-30T12:17:53.902Z,45
2016-10-30T12:18:53.593Z,45
2016-10-30T12:19:56.081Z,50
2016-10-30T12:20:52.205Z,45
2016-10-30T12:21:51.629Z,45
2016-10-30T12:22:52.220Z,45
2016-10-30T12:23:51.692Z,45
2016-10-30T12:24:53.293Z,45
2016-10-30T12:25:52.769Z,45
2016-10-30T12:26:51.701Z,45
2016-10-30T12:27:51.731Z,45
2016-10-30T12:28:56.609Z,45
2016-10-30T12:29:51.824Z,45
2016-10-30T12:30:53.290Z,45
2016-10-30T12:31:53.127Z,45
2016-10-30T12:32:52.422Z,45
2016-10-30T12:33:53.625Z,45
2016-10-30T12:34:52.710Z,45
2016-10-30T12:35:52.349Z,40
2016-10-30T12:36:51.968Z,45
2016-10-30T12:37:53.376Z,40
2016-10-30T12:38:52.881Z,40
2016-10-30T12:39:54.090Z,45
2016-10-30T12:40:51.766Z,45
2016-10-30T12:41:52.911Z,45
2016-10-30T12:42:52.215Z,45
2016-10-30T12:43:53.419Z,45
2016-10-30T12:44:52.864Z,45
2016-10-30T12:45:51.796Z,45
2016-10-30T12:46:53.201Z,45
2016-10-30T12:47:51.349Z,45
2016-10-30T12:48:52.101Z,50
2016-10-30T12:49:51.687Z,45
2016-10-30T12:50:54.797Z,45
2016-10-30T12:51:52.468Z,45
2016-10-30T12:52:53.502Z,50
2016-10-30T12:53:53.657Z,50
2016-10-30T12:54:50.960Z,50
2016-10-30T12:55:51.522Z,50
2016-10-30T12:56:53.049Z,50
2016-10-30T12:57:52.290Z,50
2016-10-30T12:58:52.133Z,50
2016-10-30T12:59:53.476Z,55
2016-10-30T13:00:52.948Z,55
2016-10-30T13:01:54.231Z,55
2016-10-30T13:02:53.601Z,50
2016-10-30T13:03:56.511Z,65
2016-10-30T13:04:52.317Z,140
2016-10-30T13:05:53.344Z,65
2016-10-30T13:06:52.653Z,110
2016-10-30T13:07:52.436Z,50
2016-10-30T13:08:53.418Z,110
2016-10-30T13:09:54.741Z,65
2016-10-30T13:10:52.565Z,55
2016-10-30T13:11:51.972Z,80
2016-10-30T13:12:57.267Z,75
2016-10-30T13:13:52.797Z,65
2016-10-30T13:14:51.580Z,60
2016-10-30T13:15:53.134Z,85
2016-10-30T13:16:51.133Z,130
2016-10-30T13:17:51.966Z,240
2016-10-30T13:18:53.573Z,255
2016-10-30T13:19:53.044Z,95
2016-10-30T13:20:51.943Z,65
2016-10-30T13:21:53.484Z,75
2016-10-30T13:22:53.055Z,80
2016-10-30T13:23:54.525Z,50
2016-10-30T13:24:53.391Z,55
2016-10-30T13:25:54.821Z,55
2016-10-30T13:26:50.910Z,50
2016-10-30T13:27:51.838Z,55
2016-10-30T13:28:52.902Z,85
2016-10-30T13:29:52.712Z,95
2016-10-30T13:30:51.708Z,65
2016-10-30T13:31:53.424Z,50
2016-10-30T13:32:54.402Z,50
2016-10-30T13:33:53.642Z,50
2016-10-30T13:34:55.281Z,45
2016-10-30T13:35:53.331Z,45
2016-10-30T13:36:54.157Z,45
2016-10-30T13:37:53.242Z,45
2016-10-30T13:38:53.028Z,45
2016-10-30T13:39:51.959Z,45
2016-10-30T13:40:53.796Z,45
2016-10-30T13:41:52.608Z,45
2016-10-30T13:42:54.130Z,45
2016-10-30T13:43:53.487Z,45
2016-10-30T13:44:53.075Z,45
2016-10-30T13:45:52.435Z,45
2016-10-30T13:46:53.924Z,40
2016-10-30T13:47:55.034Z,40
2016-10-30T13:48:52.327Z,40
2016-10-30T13:49:52.348Z,35
2016-10-30T13:50:53.092Z,35
2016-10-30T13:51:52.875Z,35
2016-10-30T13:52:54.384Z,35
2016-10-30T13:53:53.216Z,30
2016-10-30T13:54:53.002Z,30
2016-10-30T13:55:52.521Z,30
2016-10-30T13:56:55.400Z,30
2016-10-30T13:57:52.581Z,30
2016-10-30T13:58:52.054Z,35
2016-10-30T13:59:52.085Z,35
2016-10-30T14:00:51.609Z,35
2016-10-30T14:01:52.178Z,35
2016-10-30T14:02:53.582Z,35
2016-10-30T14:03:53.794Z,35
2016-10-30T14:04:53.109Z,35
2016-10-30T14:05:54.135Z,35
2016-10-30T14:06:53.586Z,35
2016-10-30T14:07:53.123Z,35
2016-10-30T14:08:53.826Z,35
2016-10-30T14:09:55.248Z,35
2016-10-30T14:10:51.337Z,30
2016-10-30T14:11:53.862Z,30
2016-10-30T14:12:53.478Z,30
2016-10-30T14:13:51.403Z,30
2016-10-30T14:14:52.879Z,30
2016-10-30T14:15:53.434Z,30
2016-10-30T14:16:54.835Z,30
2016-10-30T14:17:52.846Z,30
2016-10-30T14:18:53.925Z,30
2016-10-30T14:19:51.704Z,30
2016-10-30T14:20:52.746Z,30
2016-10-30T14:21:52.207Z,30
2016-10-30T14:22:51.819Z,30
2016-10-30T14:23:52.563Z,30
2016-10-30T14:24:54.277Z,30
2016-10-30T14:25:51.945Z,30
2016-10-30T14:26:52.941Z,25
2016-10-30T14:27:54.349Z,25
2016-10-30T14:28:53.509Z,25